createdAt,value
2023-03-16T00:02:24.657Z,92.58
2023-03-16T00:04:56.830Z,92.84
2023-03-16T00:07:29.039Z,93.14
2023-03-16T00:10:01.143Z,93.49
2023-03-16T00:12:35.918Z,93.57
2023-03-16T00:15:09.257Z,93.39
2023-03-16T00:17:40.919Z,94.46
2023-03-16T00:20:15.176Z,94.61
2023-03-16T00:22:47.901Z,93.76
2023-03-16T00:25:20.897Z,93.21
2023-03-16T00:27:55.339Z,92.69
2023-03-16T00:30:27.750Z,93.09
2023-03-16T00:32:59.663Z,92.38
2023-03-16T00:35:35.188Z,92.59
2023-03-16T00:38:06.691Z,92.24
2023-03-16T00:40:38.636Z,92.48
2023-03-16T00:43:13.383Z,92.24
2023-03-16T00:45:45.649Z,91.32
2023-03-16T00:48:18.763Z,90.86
2023-03-16T00:50:54.600Z,90.47
2023-03-16T00:53:26.628Z,90.22
2023-03-16T00:55:59.039Z,90.19
2023-03-16T00:58:36.119Z,89.97
2023-03-16T01:01:10.368Z,89.65
2023-03-16T01:03:42.440Z,89.71
2023-03-16T01:06:17.440Z,91.20
2023-03-16T01:08:49.515Z,90.76
2023-03-16T01:11:24.002Z,91.00
2023-03-16T01:13:58.630Z,90.62
2023-03-16T01:16:34.078Z,89.74
2023-03-16T01:19:06.206Z,89.64
2023-03-16T01:21:38.550Z,89.58
2023-03-16T01:24:10.929Z,89.22
2023-03-16T01:26:43.349Z,88.77
2023-03-16T01:29:17.943Z,88.60
2023-03-16T01:31:50.350Z,88.35
2023-03-16T01:34:22.211Z,88.57
2023-03-16T01:36:54.968Z,88.64
2023-03-16T01:39:26.768Z,88.24
2023-03-16T01:41:58.886Z,88.14
2023-03-16T01:44:53.201Z,87.84
2023-03-16T01:47:26.074Z,87.97
2023-03-16T01:49:59.957Z,89.18
2023-03-16T01:52:39.309Z,88.42
2023-03-16T01:55:15.450Z,88.32
2023-03-16T01:57:50.709Z,88.03
2023-03-16T02:00:31.826Z,88.07
2023-03-16T02:03:10.065Z,88.16
2023-03-16T02:05:47.762Z,88.41
2023-03-16T02:08:23.137Z,88.67
2023-03-16T02:10:56.602Z,88.48
2023-03-16T02:13:32.978Z,89.03
2023-03-16T02:16:10.054Z,88.93
2023-03-16T02:18:42.478Z,88.81
2023-03-16T02:21:22.452Z,88.44
2023-03-16T02:23:55.048Z,88.00
2023-03-16T02:26:38.785Z,87.95
2023-03-16T02:29:23.664Z,88.04
2023-03-16T02:31:58.606Z,87.90
2023-03-16T02:34:31.844Z,88.22
2023-03-16T02:37:04.351Z,88.25
2023-03-16T02:39:36.750Z,88.20
2023-03-16T02:42:08.630Z,88.14
2023-03-16T02:44:42.184Z,88.70
2023-03-16T02:47:22.844Z,88.36
2023-03-16T02:49:54.909Z,88.38
2023-03-16T02:52:26.493Z,88.56
2023-03-16T02:54:58.376Z,88.69
2023-03-16T02:57:29.989Z,89.00
2023-03-16T03:00:02.009Z,89.74
2023-03-16T03:02:36.151Z,89.95
2023-03-16T03:05:08.764Z,90.44
2023-03-16T03:07:40.354Z,90.10
2023-03-16T03:10:13.741Z,90.20
2023-03-16T03:12:49.649Z,90.81
2023-03-16T03:15:22.168Z,90.77
2023-03-16T03:17:56.461Z,90.51
2023-03-16T03:20:28.564Z,90.88
2023-03-16T03:23:00.225Z,90.52
2023-03-16T03:25:35.071Z,90.53
2023-03-16T03:28:08.729Z,90.41
2023-03-16T03:30:40.711Z,90.57
2023-03-16T03:33:14.925Z,90.59
2023-03-16T03:35:46.912Z,90.30
2023-03-16T03:38:18.524Z,90.35
2023-03-16T03:40:52.863Z,90.29
2023-03-16T03:43:24.846Z,90.59
2023-03-16T03:46:01.155Z,90.27
2023-03-16T03:48:35.573Z,90.10
2023-03-16T03:51:08.981Z,89.76
2023-03-16T03:53:40.434Z,89.29
2023-03-16T03:56:12.527Z,89.16
2023-03-16T03:58:43.985Z,89.07
2023-03-16T04:01:15.878Z,88.96
2023-03-16T04:03:50.158Z,89.37
2023-03-16T04:06:22.099Z,89.40
2023-03-16T04:08:54.553Z,88.85
2023-03-16T04:11:26.456Z,88.84
2023-03-16T04:13:57.957Z,88.93
2023-03-16T04:16:29.962Z,88.89
2023-03-16T04:19:04.656Z,88.70
2023-03-16T04:21:36.925Z,88.82
2023-03-16T04:24:09.491Z,88.88
2023-03-16T04:26:41.702Z,88.95
2023-03-16T04:29:14.555Z,89.28
2023-03-16T04:31:47.003Z,89.38
2023-03-16T04:34:25.185Z,89.53
2023-03-16T04:36:57.723Z,89.58
2023-03-16T04:39:29.696Z,89.31
2023-03-16T04:42:02.023Z,89.29
2023-03-16T04:45:03.163Z,89.24
2023-03-16T04:47:38.085Z,88.96
2023-03-16T04:50:14.365Z,89.57
2023-03-16T04:52:46.514Z,89.59
2023-03-16T04:55:18.425Z,89.63
2023-03-16T04:57:50.654Z,89.72
2023-03-16T05:00:23.940Z,89.82
2023-03-16T05:02:56.333Z,89.70
2023-03-16T05:05:31.424Z,89.98
2023-03-16T05:08:06.324Z,90.16
2023-03-16T05:10:38.314Z,90.07
2023-03-16T05:13:10.933Z,89.99
2023-03-16T05:15:43.165Z,89.97
2023-03-16T05:18:15.570Z,89.68
2023-03-16T05:21:23.725Z,89.95
2023-03-16T05:23:56.119Z,90.08
2023-03-16T05:26:28.643Z,90.24
2023-03-16T05:29:01.366Z,89.94
2023-03-16T05:31:34.406Z,89.89
2023-03-16T05:34:06.774Z,89.79
2023-03-16T05:36:41.257Z,89.75
2023-03-16T05:39:13.936Z,89.39
2023-03-16T05:41:45.867Z,89.41
2023-03-16T05:44:18.046Z,89.04
2023-03-16T05:46:50.145Z,89.00
2023-03-16T05:49:22.497Z,89.00
2023-03-16T05:51:57.401Z,89.19
2023-03-16T05:54:29.737Z,89.01
2023-03-16T05:57:01.732Z,88.88
2023-03-16T05:59:34.189Z,88.30
2023-03-16T06:02:06.450Z,87.67
2023-03-16T06:04:38.562Z,86.91
2023-03-16T06:07:13.546Z,86.50
2023-03-16T06:09:45.742Z,85.32
2023-03-16T06:12:17.836Z,85.06
2023-03-16T06:14:53.142Z,84.35
2023-03-16T06:17:28.916Z,83.79
2023-03-16T06:20:18.387Z,83.78
2023-03-16T06:26:03.866Z,82.47
2023-03-16T06:28:44.517Z,81.58
2023-03-16T06:31:29.736Z,81.05
2023-03-16T06:34:05.519Z,80.72
2023-03-16T06:36:52.680Z,81.65
2023-03-16T06:39:48.161Z,81.21
2023-03-16T06:42:20.800Z,80.71
2023-03-16T06:44:57.400Z,80.89
2023-03-16T06:47:33.773Z,80.40
2023-03-16T06:50:22.985Z,81.52
2023-03-16T06:53:03.612Z,80.66
2023-03-16T06:55:37.216Z,79.53
2023-03-16T06:58:12.496Z,78.11
2023-03-16T07:00:51.053Z,77.86
2023-03-16T07:03:24.566Z,76.98
2023-03-16T07:06:00.564Z,77.13
2023-03-16T07:08:34.527Z,76.25
2023-03-16T07:11:32.556Z,75.55
2023-03-16T07:14:12.228Z,75.35
2023-03-16T07:16:50.801Z,74.25
2023-03-16T07:19:33.734Z,74.42
2023-03-16T07:22:20.264Z,72.58
2023-03-16T07:25:08.138Z,74.44
2023-03-16T07:27:50.200Z,72.74
2023-03-16T07:30:50.541Z,71.43
2023-03-16T07:33:38.620Z,70.59
2023-03-16T07:36:18.804Z,69.87
2023-03-16T07:39:14.230Z,69.90
2023-03-16T07:41:46.637Z,68.21
2023-03-16T07:44:30.487Z,65.81
2023-03-16T07:47:12.317Z,63.75
2023-03-16T07:49:50.156Z,63.57
2023-03-16T07:52:24.477Z,62.97
2023-03-16T07:54:56.499Z,62.79
2023-03-16T07:57:31.592Z,59.92
2023-03-16T08:00:17.332Z,59.82
2023-03-16T08:02:52.089Z,59.85
2023-03-16T08:05:32.086Z,57.24
2023-03-16T08:08:13.289Z,56.51
2023-03-16T08:10:57.159Z,54.75
2023-03-16T08:13:44.982Z,52.82
2023-03-16T08:16:27.060Z,54.69
2023-03-16T08:19:05.163Z,52.71
2023-03-16T08:21:53.136Z,48.12
2023-03-16T08:24:37.428Z,46.85
2023-03-16T08:27:19.987Z,48.00
2023-03-16T08:30:00.983Z,45.88
2023-03-16T08:32:37.625Z,44.31
2023-03-16T08:35:19.697Z,42.83
2023-03-16T08:37:55.995Z,43.38
2023-03-16T08:40:30.867Z,43.36
2023-03-16T08:43:07.938Z,42.37
2023-03-16T08:45:56.444Z,42.41
2023-03-16T08:48:33.537Z,41.73
2023-03-16T08:51:09.443Z,38.50
2023-03-16T08:53:42.753Z,40.20
2023-03-16T08:56:17.266Z,39.78
2023-03-16T08:58:52.181Z,40.18
2023-03-16T09:01:25.821Z,38.12
2023-03-16T09:04:07.107Z,38.69
2023-03-16T09:07:05.816Z,39.33
2023-03-16T09:09:37.874Z,43.16
2023-03-16T09:12:12.462Z,36.28
2023-03-16T09:14:45.317Z,39.24
2023-03-16T09:17:23.861Z,38.41
2023-03-16T09:20:15.448Z,38.69
2023-03-16T09:22:58.670Z,38.30
2023-03-16T09:25:31.771Z,37.82
2023-03-16T09:28:14.734Z,38.11
2023-03-16T09:30:46.117Z,37.70
2023-03-16T09:33:20.787Z,35.45
2023-03-16T09:35:56.279Z,35.04
2023-03-16T09:38:32.385Z,37.18
2023-03-16T09:41:11.802Z,35.70
2023-03-16T09:43:58.124Z,32.55
2023-03-16T09:46:36.573Z,34.41
2023-03-16T09:49:09.664Z,33.50
2023-03-16T09:51:52.428Z,34.18
2023-03-16T09:54:57.588Z,36.66
2023-03-16T09:58:28.602Z,35.86
2023-03-16T10:02:02.125Z,30.12
2023-03-16T10:11:45.847Z,35.12
2023-03-16T10:14:26.713Z,31.95
2023-03-16T10:17:21.332Z,32.68
2023-03-16T10:20:11.945Z,28.85
2023-03-16T10:22:50.960Z,31.83
2023-03-16T10:25:49.828Z,31.56
2023-03-16T10:28:38.694Z,28.07
2023-03-16T10:31:15.399Z,26.87
2023-03-16T10:33:54.672Z,28.95
2023-03-16T10:36:34.743Z,29.83
2023-03-16T10:39:08.996Z,28.98
2023-03-16T10:41:50.854Z,26.15
2023-03-16T10:44:28.735Z,25.78
2023-03-16T10:47:11.034Z,25.39
2023-03-16T10:49:54.830Z,24.51
2023-03-16T10:52:39.411Z,25.66
2023-03-16T10:55:18.758Z,25.24
2023-03-16T10:58:09.710Z,28.48
2023-03-16T11:00:57.110Z,27.76
2023-03-16T11:03:41.490Z,26.62
2023-03-16T11:06:25.018Z,28.38
2023-03-16T11:09:05.994Z,27.44
2023-03-16T11:11:38.447Z,26.02
2023-03-16T11:14:18.393Z,27.31
2023-03-16T11:17:10.641Z,26.01
2023-03-16T11:20:17.780Z,27.86
2023-03-16T11:22:52.973Z,26.67
2023-03-16T11:25:34.629Z,25.97
2023-03-16T11:28:18.189Z,26.44
2023-03-16T11:31:08.800Z,28.06
2023-03-16T11:33:42.194Z,27.95
2023-03-16T11:36:33.838Z,27.33
2023-03-16T11:39:14.526Z,28.05
2023-03-16T11:42:00.513Z,28.25
2023-03-16T11:44:39.154Z,27.37
2023-03-16T11:47:38.289Z,27.64
2023-03-16T11:50:18.848Z,27.30
2023-03-16T11:53:23.433Z,27.04
2023-03-16T11:56:21.032Z,30.58
2023-03-16T11:59:27.426Z,30.43
2023-03-16T12:02:14.881Z,27.17
2023-03-16T12:05:03.303Z,26.39
2023-03-16T12:07:53.510Z,26.20
2023-03-16T12:10:29.345Z,27.31
2023-03-16T12:13:20.472Z,27.88
2023-03-16T12:15:57.855Z,28.63
2023-03-16T12:18:40.138Z,29.98
2023-03-16T12:21:20.444Z,31.32
2023-03-16T12:24:07.490Z,28.69
2023-03-16T12:26:44.384Z,29.56
2023-03-16T12:29:27.100Z,29.69
2023-03-16T12:32:06.439Z,27.38
2023-03-16T12:34:49.191Z,28.96
2023-03-16T12:37:41.839Z,29.53
2023-03-16T12:40:35.258Z,30.60
2023-03-16T12:43:23.021Z,31.55
2023-03-16T12:46:03.423Z,32.25
2023-03-16T12:48:42.276Z,33.04
2023-03-16T12:51:15.216Z,32.12
2023-03-16T12:53:59.564Z,32.38
2023-03-16T12:56:37.225Z,33.14
2023-03-16T12:59:11.968Z,31.84
2023-03-16T13:01:47.260Z,32.12
2023-03-16T13:04:36.993Z,31.83
2023-03-16T13:07:12.534Z,32.48
2023-03-16T13:09:54.800Z,31.56
2023-03-16T13:12:33.032Z,31.61
2023-03-16T13:15:18.369Z,32.13
2023-03-16T13:17:53.300Z,31.77
2023-03-16T13:20:32.271Z,32.01
2023-03-16T13:23:25.666Z,30.82
2023-03-16T13:26:19.574Z,30.25
2023-03-16T13:28:56.439Z,29.91
2023-03-16T13:31:34.875Z,29.69
2023-03-16T13:34:15.614Z,29.54
2023-03-16T13:36:53.420Z,29.40
2023-03-16T13:39:27.789Z,28.66
2023-03-16T13:42:21.296Z,28.45
2023-03-16T13:44:57.403Z,27.57
2023-03-16T13:47:34.948Z,28.71
2023-03-16T13:50:08.290Z,28.49
2023-03-16T13:52:43.562Z,28.01
2023-03-16T13:55:22.591Z,27.58
2023-03-16T13:57:58.687Z,27.79
2023-03-16T14:00:35.631Z,27.76
2023-03-16T14:03:18.407Z,27.82
2023-03-16T14:05:51.108Z,27.49
2023-03-16T14:08:26.710Z,27.89
2023-03-16T14:11:01.458Z,28.38
2023-03-16T14:13:43.071Z,28.18
2023-03-16T14:16:20.533Z,28.88
2023-03-16T14:18:57.925Z,29.28
2023-03-16T14:21:34.918Z,28.85
2023-03-16T14:24:10.279Z,29.34
2023-03-16T14:26:46.604Z,29.13
2023-03-16T14:29:26.178Z,28.97
2023-03-16T14:31:58.738Z,27.98
2023-03-16T14:34:34.692Z,27.45
2023-03-16T14:37:13.393Z,27.42
2023-03-16T14:39:46.185Z,27.59
2023-03-16T14:42:24.969Z,26.36
2023-03-16T14:45:01.190Z,26.45
2023-03-16T14:47:35.314Z,26.85
2023-03-16T14:50:13.228Z,26.64
2023-03-16T14:52:48.938Z,26.77
2023-03-16T14:55:24.229Z,27.18
2023-03-16T14:57:55.610Z,26.78
2023-03-16T15:00:33.069Z,27.93
2023-03-16T15:03:12.037Z,27.90
2023-03-16T15:05:45.731Z,27.61
2023-03-16T15:08:22.557Z,27.19
2023-03-16T15:10:54.558Z,27.50
2023-03-16T15:13:53.048Z,28.10
2023-03-16T15:16:28.407Z,27.83
2023-03-16T15:18:59.896Z,27.99
2023-03-16T15:21:35.121Z,28.53
2023-03-16T15:24:06.687Z,27.00
2023-03-16T15:26:38.272Z,26.89
2023-03-16T15:29:20.192Z,26.99
2023-03-16T15:31:54.808Z,25.55
2023-03-16T15:34:27.653Z,24.75
2023-03-16T15:37:01.808Z,24.85
2023-03-16T15:39:33.345Z,24.76
2023-03-16T15:42:05.455Z,24.96
2023-03-16T15:44:40.204Z,25.32
2023-03-16T15:47:15.721Z,24.60
2023-03-16T15:49:48.485Z,24.58
2023-03-16T15:52:29.009Z,24.00
2023-03-16T15:55:04.820Z,24.18
2023-03-16T15:57:37.415Z,25.11
2023-03-16T16:00:13.411Z,25.49
2023-03-16T16:02:48.298Z,25.81
2023-03-16T16:05:23.459Z,26.46
2023-03-16T16:07:56.752Z,27.04
2023-03-16T16:10:30.194Z,27.70
2023-03-16T16:13:05.949Z,28.00
2023-03-16T16:15:42.523Z,28.43
2023-03-16T16:18:37.798Z,28.63
2023-03-16T16:21:12.188Z,28.95
2023-03-16T16:23:46.885Z,29.15
2023-03-16T16:26:41.574Z,28.54
2023-03-16T16:29:22.708Z,28.85
2023-03-16T16:31:55.619Z,28.91
2023-03-16T16:34:31.504Z,29.38
2023-03-16T16:37:02.949Z,29.34
2023-03-16T16:39:35.739Z,29.72
2023-03-16T16:42:10.639Z,30.05
2023-03-16T16:44:46.840Z,30.40
2023-03-16T16:47:24.317Z,30.77
2023-03-16T16:50:02.484Z,30.34
2023-03-16T16:52:34.240Z,31.43
2023-03-16T16:55:07.011Z,30.94
2023-03-16T16:57:39.061Z,31.78
2023-03-16T17:00:22.187Z,31.41
2023-03-16T17:02:58.207Z,30.86
2023-03-16T17:05:34.117Z,31.18
2023-03-16T17:08:07.787Z,31.20
2023-03-16T17:10:42.802Z,31.20
2023-03-16T17:13:30.050Z,31.58
2023-03-16T17:16:04.339Z,31.25
2023-03-16T17:18:36.119Z,31.14
2023-03-16T17:21:16.083Z,31.45
2023-03-16T17:23:52.966Z,31.95
2023-03-16T17:26:33.173Z,33.39
2023-03-16T17:29:07.910Z,32.29
2023-03-16T17:31:44.237Z,32.00
2023-03-16T17:34:20.711Z,31.22
2023-03-16T17:36:55.823Z,31.23
2023-03-16T17:39:29.162Z,31.28
2023-03-16T17:42:03.598Z,31.48
2023-03-16T17:44:37.315Z,31.95
2023-03-16T17:47:18.965Z,31.46
2023-03-16T17:49:51.005Z,31.36
2023-03-16T17:52:26.899Z,31.46
2023-03-16T17:54:58.434Z,32.08
2023-03-16T17:57:33.878Z,31.58
2023-03-16T18:00:09.208Z,31.65
2023-03-16T18:02:47.858Z,32.28
2023-03-16T18:05:21.400Z,32.67
2023-03-16T18:07:56.256Z,32.17
2023-03-16T18:10:29.889Z,31.99
2023-03-16T18:13:05.962Z,32.30
2023-03-16T18:15:39.745Z,32.28
2023-03-16T18:18:19.236Z,32.28
2023-03-16T18:20:52.469Z,32.05
2023-03-16T18:23:32.240Z,31.96
2023-03-16T18:26:04.724Z,32.03
2023-03-16T18:28:38.100Z,32.31
2023-03-16T18:31:21.512Z,32.60
2023-03-16T18:33:55.492Z,32.19
2023-03-16T18:36:32.317Z,32.60
2023-03-16T18:39:09.889Z,32.33
2023-03-16T18:41:41.768Z,32.57
2023-03-16T18:44:20.915Z,32.74
2023-03-16T18:46:54.023Z,32.49
2023-03-16T18:49:30.525Z,32.87
2023-03-16T18:52:01.882Z,32.88
2023-03-16T18:54:38.672Z,33.10
2023-03-16T18:57:19.312Z,32.87
2023-03-16T18:59:51.838Z,33.21
2023-03-16T19:02:31.626Z,33.13
2023-03-16T19:05:07.827Z,33.11
2023-03-16T19:07:42.366Z,33.35
2023-03-16T19:10:26.077Z,33.01
2023-03-16T19:12:58.350Z,33.14
2023-03-16T19:15:32.174Z,33.42
2023-03-16T19:18:03.865Z,33.84
2023-03-16T19:20:37.984Z,33.59
2023-03-16T19:23:16.759Z,34.10
2023-03-16T19:25:53.565Z,34.29
2023-03-16T19:28:29.903Z,34.52
2023-03-16T19:31:01.529Z,34.68
2023-03-16T19:33:32.931Z,34.82
2023-03-16T19:36:05.253Z,34.95
2023-03-16T19:38:36.400Z,35.13
2023-03-16T19:41:24.044Z,34.91
2023-03-16T19:43:56.611Z,35.44
2023-03-16T19:46:30.280Z,35.14
2023-03-16T19:49:01.345Z,34.89
2023-03-16T19:51:33.006Z,35.55
2023-03-16T19:54:04.373Z,35.14
2023-03-16T19:56:41.439Z,35.25
2023-03-16T19:59:13.336Z,35.44
2023-03-16T20:01:44.903Z,35.72
2023-03-16T20:04:21.279Z,35.55
2023-03-16T20:06:53.857Z,35.78
2023-03-16T20:09:25.351Z,35.65
2023-03-16T20:11:59.756Z,36.38
2023-03-16T20:14:35.844Z,36.21
2023-03-16T20:17:12.998Z,35.78
2023-03-16T20:19:44.449Z,36.13
2023-03-16T20:22:21.651Z,36.17
2023-03-16T20:24:55.147Z,36.45
2023-03-16T20:27:31.639Z,36.39
2023-03-16T20:30:03.280Z,36.22
2023-03-16T20:32:40.160Z,36.17
2023-03-16T20:35:18.890Z,36.69
2023-03-16T20:37:53.199Z,36.68
2023-03-16T20:40:25.127Z,36.79
2023-03-16T20:42:59.480Z,37.23
2023-03-16T20:45:32.344Z,37.24
2023-03-16T20:48:04.269Z,37.21
2023-03-16T20:50:36.809Z,37.62
2023-03-16T20:53:08.923Z,37.90
2023-03-16T20:55:41.167Z,37.83
2023-03-16T20:58:28.206Z,38.28
2023-03-16T21:01:02.310Z,38.39
2023-03-16T21:03:35.005Z,38.72
2023-03-16T21:06:18.253Z,38.97
2023-03-16T21:08:50.416Z,39.40
2023-03-16T21:11:26.746Z,39.58
2023-03-16T21:14:05.447Z,40.10
2023-03-16T21:16:36.843Z,40.13
2023-03-16T21:19:14.988Z,40.49
2023-03-16T21:21:51.324Z,41.11
2023-03-16T21:27:32.355Z,41.91
2023-03-16T21:30:10.930Z,42.53
2023-03-16T21:32:42.789Z,42.39
2023-03-16T21:35:17.427Z,42.92
2023-03-16T21:37:49.100Z,43.37
2023-03-16T21:40:23.330Z,43.74
2023-03-16T21:42:54.641Z,44.04
2023-03-16T21:45:29.682Z,44.30
2023-03-16T21:48:01.310Z,44.73
2023-03-16T21:50:38.705Z,45.09
2023-03-16T21:53:19.173Z,45.25
2023-03-16T21:55:51.074Z,45.35
2023-03-16T21:58:23.518Z,45.76
2023-03-16T22:00:59.205Z,45.59
2023-03-16T22:03:49.789Z,46.23
2023-03-16T22:06:23.630Z,46.28
2023-03-16T22:08:55.022Z,46.83
2023-03-16T22:11:28.414Z,46.98
2023-03-16T22:14:01.543Z,47.44
2023-03-16T22:16:39.701Z,47.68
2023-03-16T22:19:16.249Z,47.32
2023-03-16T22:21:50.247Z,48.01
2023-03-16T22:24:27.761Z,48.25
2023-03-16T22:27:00.039Z,48.39
2023-03-16T22:29:33.993Z,48.45
2023-03-16T22:32:18.297Z,48.81
2023-03-16T22:34:53.191Z,48.49
2023-03-16T22:37:28.008Z,48.86
2023-03-16T22:39:59.426Z,48.88
2023-03-16T22:42:36.061Z,48.73
2023-03-16T22:45:19.573Z,49.06
2023-03-16T22:47:54.476Z,49.02
2023-03-16T22:50:28.480Z,49.12
2023-03-16T22:53:03.707Z,49.53
2023-03-16T22:55:39.806Z,49.64
2023-03-16T22:58:18.081Z,49.67
2023-03-16T23:00:49.471Z,50.04
2023-03-16T23:03:25.953Z,49.68
2023-03-16T23:05:57.394Z,50.00
2023-03-16T23:08:29.858Z,50.21
2023-03-16T23:11:01.362Z,50.16
2023-03-16T23:13:34.274Z,50.20
2023-03-16T23:16:05.708Z,50.46
2023-03-16T23:18:39.875Z,50.33
2023-03-16T23:21:13.924Z,50.43
2023-03-16T23:23:53.942Z,50.64
2023-03-16T23:26:35.006Z,50.93
2023-03-16T23:29:06.934Z,51.08
2023-03-16T23:31:38.276Z,51.58
2023-03-16T23:34:16.748Z,51.59
2023-03-16T23:37:23.093Z,51.50
2023-03-16T23:39:55.688Z,51.69
2023-03-16T23:42:27.687Z,52.24
2023-03-16T23:45:02.809Z,52.11
2023-03-16T23:47:35.073Z,52.67
2023-03-16T23:50:15.549Z,52.60
2023-03-16T23:52:47.633Z,52.93
2023-03-16T23:55:20.973Z,53.12
2023-03-16T23:57:53.777Z,53.08
